createdAt,value
2018-12-29T00:01:28.771Z,11.23
2018-12-29T00:03:59.833Z,11.57
2018-12-29T00:06:30.430Z,12.57
2018-12-29T00:09:01.699Z,12.47
2018-12-29T00:11:33.862Z,11.40
2018-12-29T00:14:05.966Z,16.80
2018-12-29T00:16:36.963Z,12.03
2018-12-29T00:19:07.614Z,17.03
2018-12-29T00:21:38.143Z,13.40
2018-12-29T00:24:09.304Z,13.37
2018-12-29T00:26:40.560Z,11.30
2018-12-29T00:29:11.279Z,14.53
2018-12-29T00:31:41.899Z,11.17
2018-12-29T00:34:12.485Z,10.10
2018-12-29T00:36:43.549Z,12.20
2018-12-29T00:39:14.055Z,12.20
2018-12-29T00:41:44.345Z,19.90
2018-12-29T00:44:17.452Z,13.40
2018-12-29T00:46:47.468Z,15.30
2018-12-29T00:49:17.900Z,12.70
2018-12-29T00:51:51.275Z,13.00
2018-12-29T00:54:22.470Z,14.30
2018-12-29T00:56:53.379Z,12.60
2018-12-29T00:59:24.228Z,11.37
2018-12-29T01:01:54.640Z,10.23
2018-12-29T01:04:25.757Z,16.33
2018-12-29T01:06:57.087Z,9.93
2018-12-29T01:09:28.129Z,8.83
2018-12-29T01:11:59.142Z,11.33
2018-12-29T01:14:30.243Z,11.23
2018-12-29T01:17:01.912Z,11.70
2018-12-29T01:19:32.889Z,18.77
2018-12-29T01:22:04.236Z,15.00
2018-12-29T01:24:35.000Z,11.83
2018-12-29T01:27:05.589Z,11.07
2018-12-29T01:29:36.450Z,10.20
2018-12-29T01:32:07.417Z,11.37
2018-12-29T01:34:38.201Z,14.40
2018-12-29T01:37:08.548Z,15.93
2018-12-29T01:39:39.057Z,10.10
2018-12-29T01:42:09.669Z,11.13
2018-12-29T01:44:40.661Z,9.90
2018-12-29T01:47:11.103Z,9.53
2018-12-29T01:49:42.840Z,11.70
2018-12-29T01:52:13.492Z,9.70
2018-12-29T01:54:43.914Z,10.43
2018-12-29T01:57:15.725Z,10.60
2018-12-29T01:59:46.332Z,10.37
2018-12-29T02:02:17.179Z,9.10
2018-12-29T02:04:48.004Z,8.23
2018-12-29T02:07:18.879Z,9.13
2018-12-29T02:09:50.539Z,9.80
2018-12-29T02:12:21.500Z,7.53
2018-12-29T02:14:55.535Z,8.43
2018-12-29T02:17:33.168Z,11.07
2018-12-29T02:20:04.944Z,9.50
2018-12-29T02:22:35.517Z,11.03
2018-12-29T02:25:06.727Z,7.40
2018-12-29T02:27:39.879Z,8.57
2018-12-29T02:30:10.024Z,7.77
2018-12-29T02:32:40.922Z,7.10
2018-12-29T02:35:12.438Z,6.83
2018-12-29T02:37:47.454Z,6.70
2018-12-29T02:40:18.607Z,7.33
2018-12-29T02:42:49.412Z,7.73
2018-12-29T02:45:19.800Z,13.27
2018-12-29T02:47:50.368Z,6.77
2018-12-29T02:50:20.944Z,8.00
2018-12-29T02:52:52.407Z,7.90
2018-12-29T02:55:22.994Z,14.17
2018-12-29T02:57:54.279Z,8.33
2018-12-29T03:00:24.654Z,7.07
2018-12-29T03:02:55.563Z,7.60
2018-12-29T03:05:26.588Z,7.70
2018-12-29T03:07:57.568Z,8.30
2018-12-29T03:10:28.289Z,6.73
2018-12-29T03:12:59.324Z,7.00
2018-12-29T03:15:30.674Z,8.17
2018-12-29T03:18:01.070Z,8.27
2018-12-29T03:20:32.051Z,6.97
2018-12-29T03:23:04.099Z,7.53
2018-12-29T03:25:37.376Z,9.23
2018-12-29T03:28:08.214Z,10.53
2018-12-29T03:30:38.738Z,9.43
2018-12-29T03:33:10.691Z,8.03
2018-12-29T03:35:41.568Z,7.00
2018-12-29T03:38:12.396Z,8.77
2018-12-29T03:40:43.320Z,8.50
2018-12-29T03:43:14.119Z,9.80
2018-12-29T03:45:48.993Z,10.90
2018-12-29T03:48:17.774Z,8.37
2018-12-29T03:50:48.492Z,9.17
2018-12-29T03:53:28.874Z,10.00
2018-12-29T03:55:59.655Z,10.87
2018-12-29T03:58:30.438Z,8.70
2018-12-29T04:01:01.150Z,8.77
2018-12-29T04:03:31.537Z,12.60
2018-12-29T04:06:02.371Z,10.53
2018-12-29T04:08:32.814Z,11.70
2018-12-29T04:11:03.378Z,10.33
2018-12-29T04:13:34.623Z,9.27
2018-12-29T04:16:06.375Z,12.50
2018-12-29T04:18:36.942Z,10.70
2018-12-29T04:21:07.899Z,11.10
2018-12-29T04:23:38.387Z,10.17
2018-12-29T04:26:09.413Z,9.40
2018-12-29T04:28:40.164Z,9.67
2018-12-29T04:31:10.847Z,9.93
2018-12-29T04:33:42.527Z,12.63
2018-12-29T04:36:13.471Z,14.20
2018-12-29T04:38:44.287Z,10.80
2018-12-29T04:41:15.652Z,11.10
2018-12-29T04:43:46.448Z,12.70
2018-12-29T04:46:18.330Z,12.27
2018-12-29T04:48:48.758Z,12.33
2018-12-29T04:51:20.069Z,12.37
2018-12-29T04:53:50.533Z,13.63
2018-12-29T04:56:21.495Z,16.50
2018-12-29T04:58:52.006Z,15.20
2018-12-29T05:01:22.611Z,19.27
2018-12-29T05:03:53.010Z,13.10
2018-12-29T05:06:23.459Z,13.93
2018-12-29T05:08:54.392Z,12.93
2018-12-29T05:11:27.808Z,15.30
2018-12-29T05:14:00.845Z,15.30
2018-12-29T05:16:31.395Z,12.00
2018-12-29T05:19:01.813Z,13.00
2018-12-29T05:21:33.150Z,13.20
2018-12-29T05:24:03.967Z,15.17
2018-12-29T05:26:34.484Z,13.40
2018-12-29T05:29:05.012Z,14.50
2018-12-29T05:31:35.977Z,12.43
2018-12-29T05:34:07.201Z,15.27
2018-12-29T05:36:37.871Z,15.60
2018-12-29T05:39:08.767Z,16.20
2018-12-29T05:41:39.115Z,15.20
2018-12-29T05:44:09.391Z,14.63
2018-12-29T05:46:39.727Z,14.60
2018-12-29T05:49:10.288Z,14.43
2018-12-29T05:51:40.998Z,12.37
2018-12-29T05:54:14.211Z,12.27
2018-12-29T05:56:44.809Z,18.90
2018-12-29T05:59:15.560Z,16.60
2018-12-29T06:01:48.946Z,17.23
2018-12-29T06:04:19.611Z,16.97
2018-12-29T06:06:51.876Z,20.70
2018-12-29T06:09:22.628Z,21.50
2018-12-29T06:11:54.940Z,15.77
2018-12-29T06:14:26.679Z,18.97
2018-12-29T06:16:57.295Z,15.63
2018-12-29T06:19:28.091Z,16.90
2018-12-29T06:21:58.977Z,16.30
2018-12-29T06:24:29.620Z,17.83
2018-12-29T06:27:00.607Z,22.00
2018-12-29T06:29:31.526Z,19.93
2018-12-29T06:32:02.270Z,18.87
2018-12-29T06:34:33.416Z,16.97
2018-12-29T06:37:05.020Z,24.23
2018-12-29T06:39:35.715Z,20.30
2018-12-29T06:42:06.463Z,23.13
2018-12-29T06:44:37.252Z,22.90
2018-12-29T06:47:08.017Z,20.43
2018-12-29T06:49:38.858Z,21.13
2018-12-29T06:52:09.827Z,21.30
2018-12-29T06:54:40.500Z,24.23
2018-12-29T06:57:11.992Z,27.80
2018-12-29T06:59:42.880Z,28.27
2018-12-29T07:02:14.113Z,27.57
2018-12-29T07:04:44.820Z,27.90
2018-12-29T07:07:15.296Z,25.63
2018-12-29T07:09:46.051Z,32.77
2018-12-29T07:12:16.710Z,27.63
2018-12-29T07:14:47.714Z,30.00
2018-12-29T07:17:18.444Z,29.87
2018-12-29T07:19:49.153Z,32.00
2018-12-29T07:22:19.902Z,38.50
2018-12-29T07:24:50.791Z,33.43
2018-12-29T07:27:22.781Z,33.90
2018-12-29T07:29:53.802Z,32.50
2018-12-29T07:32:25.087Z,36.47
2018-12-29T07:34:55.950Z,42.17
2018-12-29T07:37:26.610Z,37.60
2018-12-29T07:39:57.587Z,41.90
2018-12-29T07:42:28.293Z,37.20
2018-12-29T07:45:00.088Z,36.13
2018-12-29T07:47:31.888Z,34.23
2018-12-29T07:50:02.786Z,36.27
2018-12-29T07:52:34.114Z,34.53
2018-12-29T07:55:04.691Z,36.77
2018-12-29T07:57:35.531Z,35.33
2018-12-29T08:00:07.313Z,37.90
2018-12-29T08:02:38.647Z,40.60
2018-12-29T08:05:28.768Z,36.17
2018-12-29T08:07:59.269Z,35.97
2018-12-29T08:10:30.017Z,31.57
2018-12-29T08:13:00.420Z,32.80
2018-12-29T08:15:30.781Z,28.77
2018-12-29T08:18:05.273Z,32.53
2018-12-29T08:20:35.951Z,28.73
2018-12-29T08:23:06.446Z,26.37
2018-12-29T08:25:37.456Z,27.60
2018-12-29T08:28:08.180Z,25.43
2018-12-29T08:30:38.578Z,24.57
2018-12-29T08:33:09.176Z,25.47
2018-12-29T08:35:39.627Z,27.13
2018-12-29T08:38:10.627Z,26.80
2018-12-29T08:40:50.228Z,21.50
2018-12-29T08:43:21.356Z,23.53
2018-12-29T08:45:51.814Z,23.27
2018-12-29T08:48:22.506Z,27.30
2018-12-29T08:50:53.568Z,21.83
2018-12-29T08:53:24.041Z,22.97
2018-12-29T08:55:58.377Z,26.67
2018-12-29T08:58:29.295Z,22.67
2018-12-29T09:01:00.484Z,21.80
2018-12-29T09:03:34.202Z,20.40
2018-12-29T09:06:04.945Z,25.23
2018-12-29T09:08:35.304Z,23.90
2018-12-29T09:11:05.743Z,19.50
2018-12-29T09:13:39.236Z,22.53
2018-12-29T09:16:09.755Z,20.73
2018-12-29T09:18:40.366Z,22.80
2018-12-29T09:21:15.084Z,19.03
2018-12-29T09:23:46.753Z,24.03
2018-12-29T09:26:17.457Z,21.30
2018-12-29T09:28:48.125Z,25.70
2018-12-29T09:31:18.575Z,26.33
2018-12-29T09:33:49.952Z,22.73
2018-12-29T09:36:21.414Z,24.03
2018-12-29T09:38:52.565Z,24.80
2018-12-29T09:41:23.466Z,26.40
2018-12-29T09:43:54.333Z,27.50
2018-12-29T09:46:24.778Z,25.07
2018-12-29T09:48:56.019Z,26.73
2018-12-29T09:51:27.502Z,26.00
2018-12-29T09:53:59.709Z,23.47
2018-12-29T09:56:30.536Z,22.50
2018-12-29T09:59:02.537Z,28.57
2018-12-29T10:01:33.298Z,28.43
2018-12-29T10:04:04.212Z,26.50
2018-12-29T10:06:35.400Z,25.30
2018-12-29T10:09:07.259Z,33.40
2018-12-29T10:11:38.680Z,30.87
2018-12-29T10:14:09.108Z,34.43
2018-12-29T10:16:39.625Z,34.47
2018-12-29T10:19:10.132Z,31.97
2018-12-29T10:21:40.659Z,30.03
2018-12-29T10:24:11.138Z,35.10
2018-12-29T10:26:41.735Z,29.40
2018-12-29T10:29:12.408Z,26.57
2018-12-29T10:31:42.931Z,27.57
2018-12-29T10:34:15.909Z,25.27
2018-12-29T10:36:46.373Z,29.97
2018-12-29T10:39:17.017Z,26.17
2018-12-29T10:41:48.172Z,30.70
2018-12-29T10:44:20.285Z,27.67
2018-12-29T10:46:50.927Z,26.90
2018-12-29T10:49:21.778Z,25.87
2018-12-29T10:51:52.454Z,26.53
2018-12-29T10:54:22.948Z,28.57
2018-12-29T10:56:53.842Z,25.07
2018-12-29T10:59:24.943Z,28.10
2018-12-29T11:01:55.343Z,26.77
2018-12-29T11:04:25.847Z,29.93
2018-12-29T11:06:56.477Z,24.07
2018-12-29T11:09:26.978Z,27.63
2018-12-29T11:11:57.578Z,25.73
2018-12-29T11:14:28.190Z,26.73
2018-12-29T11:17:01.946Z,26.47
2018-12-29T11:19:32.377Z,32.33
2018-12-29T11:22:03.361Z,25.57
2018-12-29T11:24:34.213Z,29.13
2018-12-29T11:27:07.669Z,33.47
2018-12-29T11:29:39.530Z,29.83
2018-12-29T11:32:12.005Z,27.17
2018-12-29T11:34:42.405Z,27.90
2018-12-29T11:37:12.853Z,33.17
2018-12-29T11:39:43.396Z,31.53
2018-12-29T11:42:14.186Z,34.00
2018-12-29T11:44:45.511Z,31.07
2018-12-29T11:47:16.347Z,40.80
2018-12-29T11:49:48.193Z,41.57
2018-12-29T11:52:19.283Z,37.30
2018-12-29T11:54:50.266Z,40.90
2018-12-29T11:57:21.109Z,37.27
2018-12-29T11:59:51.883Z,31.60
2018-12-29T12:02:24.646Z,32.60
2018-12-29T12:04:55.505Z,37.23
2018-12-29T12:07:26.927Z,39.80
2018-12-29T12:09:58.096Z,37.53
2018-12-29T12:12:29.489Z,35.67
2018-12-29T12:15:00.091Z,35.13
2018-12-29T12:17:31.014Z,35.87
2018-12-29T12:20:01.901Z,31.77
2018-12-29T12:22:32.448Z,36.97
2018-12-29T12:25:03.660Z,35.53
2018-12-29T12:27:34.113Z,30.27
2018-12-29T12:30:06.017Z,32.90
2018-12-29T12:32:36.927Z,33.30
2018-12-29T12:35:08.062Z,32.77
2018-12-29T12:37:38.590Z,28.43
2018-12-29T12:40:09.347Z,29.57
2018-12-29T12:42:40.335Z,31.20
2018-12-29T12:45:10.943Z,27.03
2018-12-29T12:47:41.748Z,34.00
2018-12-29T12:50:12.344Z,27.10
2018-12-29T12:52:43.826Z,28.07
2018-12-29T12:55:15.344Z,26.83
2018-12-29T12:57:45.822Z,28.10
2018-12-29T13:00:19.082Z,28.87
2018-12-29T13:02:50.055Z,24.37
2018-12-29T13:05:21.037Z,22.43
2018-12-29T13:07:52.406Z,25.40
2018-12-29T13:10:23.416Z,25.20
2018-12-29T13:12:55.370Z,25.70
2018-12-29T13:15:26.962Z,25.93
2018-12-29T13:17:59.191Z,26.37
2018-12-29T13:20:30.208Z,28.83
2018-12-29T13:23:01.311Z,24.73
2018-12-29T13:25:32.692Z,25.73
2018-12-29T13:28:03.631Z,26.50
2018-12-29T13:30:34.726Z,28.47
2018-12-29T13:33:05.406Z,28.13
2018-12-29T13:35:36.186Z,28.50
2018-12-29T13:38:07.108Z,22.67
2018-12-29T13:40:39.188Z,22.70
2018-12-29T13:43:10.527Z,24.17
2018-12-29T13:45:41.216Z,22.13
2018-12-29T13:48:12.273Z,25.20
2018-12-29T13:50:43.552Z,20.53
2018-12-29T13:53:14.894Z,27.47
2018-12-29T13:55:45.416Z,25.90
2018-12-29T13:58:17.070Z,24.63
2018-12-29T14:00:47.737Z,24.00
2018-12-29T14:03:18.327Z,22.20
2018-12-29T14:05:50.689Z,24.47
2018-12-29T14:08:21.646Z,22.67
2018-12-29T14:10:53.849Z,25.70
2018-12-29T14:13:24.199Z,25.97
2018-12-29T14:15:54.975Z,24.93
2018-12-29T14:18:28.332Z,25.80
2018-12-29T14:20:58.787Z,25.50
2018-12-29T14:23:29.702Z,23.23
2018-12-29T14:26:01.898Z,22.17
2018-12-29T14:28:35.428Z,23.93
2018-12-29T14:31:06.306Z,26.30
2018-12-29T14:33:37.250Z,21.10
2018-12-29T14:36:08.103Z,23.90
2018-12-29T14:38:38.636Z,24.67
2018-12-29T14:41:09.295Z,22.33
2018-12-29T14:43:40.374Z,22.53
2018-12-29T14:46:11.971Z,28.47
2018-12-29T14:48:43.652Z,28.30
2018-12-29T14:51:14.596Z,25.20
2018-12-29T14:53:45.605Z,25.77
2018-12-29T14:56:17.412Z,27.77
2018-12-29T14:58:48.092Z,24.53
2018-12-29T15:01:18.617Z,25.33
2018-12-29T15:03:49.533Z,30.20
2018-12-29T15:06:20.325Z,28.50
2018-12-29T15:08:51.079Z,26.57
2018-12-29T15:11:23.083Z,25.80
2018-12-29T15:13:53.621Z,30.37
2018-12-29T15:16:24.450Z,31.03
2018-12-29T15:18:54.842Z,27.50
2018-12-29T15:21:26.781Z,30.87
2018-12-29T15:23:57.266Z,32.63
2018-12-29T15:26:27.662Z,32.23
2018-12-29T15:28:58.091Z,27.80
2018-12-29T15:31:28.709Z,29.90
2018-12-29T15:34:04.186Z,28.07
2018-12-29T15:36:35.761Z,24.80
2018-12-29T15:39:07.734Z,25.17
2018-12-29T15:41:39.014Z,23.50
2018-12-29T15:44:09.458Z,27.47
2018-12-29T15:46:40.144Z,27.23
2018-12-29T15:49:11.068Z,25.00
2018-12-29T15:51:41.667Z,28.97
2018-12-29T15:54:14.144Z,25.20
2018-12-29T15:56:44.578Z,25.97
2018-12-29T15:59:16.682Z,32.83
2018-12-29T16:01:47.221Z,29.37
2018-12-29T16:04:17.843Z,28.30
2018-12-29T16:06:48.730Z,27.53
2018-12-29T16:09:19.549Z,26.07
2018-12-29T16:11:50.421Z,29.23
2018-12-29T16:14:21.258Z,28.83
2018-12-29T16:16:53.594Z,27.10
2018-12-29T16:19:24.208Z,27.63
2018-12-29T16:21:55.277Z,31.93
2018-12-29T16:24:26.369Z,34.57
2018-12-29T16:26:57.109Z,33.20
2018-12-29T16:29:28.141Z,33.07
2018-12-29T16:31:58.853Z,31.23
2018-12-29T16:34:31.197Z,29.97
2018-12-29T16:37:02.011Z,24.80
2018-12-29T16:39:32.993Z,36.70
2018-12-29T16:42:03.554Z,30.37
2018-12-29T16:44:33.727Z,29.50
2018-12-29T16:47:04.788Z,31.37
2018-12-29T16:49:36.410Z,32.27
2018-12-29T16:52:09.447Z,30.40
2018-12-29T16:54:39.881Z,27.70
2018-12-29T16:57:10.858Z,29.00
2018-12-29T16:59:44.278Z,27.03
2018-12-29T17:02:15.826Z,25.37
2018-12-29T17:04:46.489Z,24.33
2018-12-29T17:07:17.437Z,22.63
2018-12-29T17:09:48.543Z,23.57
2018-12-29T17:12:23.496Z,26.10
2018-12-29T17:14:54.040Z,31.20
2018-12-29T17:17:26.222Z,26.80
2018-12-29T17:19:57.663Z,26.97
2018-12-29T17:22:28.160Z,27.60
2018-12-29T17:24:58.990Z,23.50
2018-12-29T17:27:30.188Z,24.63
2018-12-29T17:30:01.715Z,27.63
2018-12-29T17:32:32.527Z,24.97
2018-12-29T17:35:03.451Z,25.33
2018-12-29T17:37:34.341Z,29.20
2018-12-29T17:40:05.011Z,34.93
2018-12-29T17:42:36.312Z,24.23
2018-12-29T17:45:08.219Z,29.37
2018-12-29T17:47:39.101Z,24.50
2018-12-29T17:50:10.028Z,26.10
2018-12-29T17:52:42.148Z,29.30
2018-12-29T17:55:14.895Z,28.63
2018-12-29T17:57:45.726Z,27.17
2018-12-29T18:00:16.469Z,26.60
2018-12-29T18:02:47.497Z,34.23
2018-12-29T18:05:18.520Z,30.80
2018-12-29T18:07:50.415Z,29.20
2018-12-29T18:10:22.815Z,26.70
2018-12-29T18:12:55.003Z,26.77
2018-12-29T18:15:26.141Z,32.13
2018-12-29T18:17:56.889Z,31.97
2018-12-29T18:20:27.925Z,31.60
2018-12-29T18:22:58.693Z,30.77
2018-12-29T18:25:31.411Z,29.43
2018-12-29T18:28:02.622Z,24.00
2018-12-29T18:30:34.631Z,27.97
2018-12-29T18:33:06.739Z,21.10
2018-12-29T18:35:38.643Z,30.37
2018-12-29T18:38:09.843Z,30.40
2018-12-29T18:40:41.757Z,31.00
2018-12-29T18:43:14.624Z,21.20
2018-12-29T18:45:45.675Z,21.90
2018-12-29T18:48:17.114Z,24.70
2018-12-29T18:50:48.978Z,20.90
2018-12-29T18:53:21.490Z,23.60
2018-12-29T18:55:53.304Z,22.00
2018-12-29T18:58:24.353Z,24.30
2018-12-29T19:00:55.488Z,30.53
2018-12-29T19:03:26.743Z,24.90
2018-12-29T19:05:58.865Z,26.53
2018-12-29T19:08:30.552Z,33.13
2018-12-29T19:11:01.648Z,28.50
2018-12-29T19:13:33.023Z,26.40
2018-12-29T19:16:04.944Z,21.77
2018-12-29T19:18:41.441Z,24.00
2018-12-29T19:21:08.935Z,20.37
2018-12-29T19:23:40.538Z,22.87
2018-12-29T19:26:11.948Z,20.70
2018-12-29T19:28:43.838Z,19.80
2018-12-29T19:31:14.959Z,19.40
2018-12-29T19:33:48.127Z,19.23
2018-12-29T19:36:19.348Z,20.40
2018-12-29T19:38:51.275Z,17.73
2018-12-29T19:41:22.352Z,20.50
2018-12-29T19:43:54.372Z,19.30
2018-12-29T19:46:26.374Z,21.67
2018-12-29T19:48:58.305Z,21.13
2018-12-29T19:51:30.630Z,21.67
2018-12-29T19:54:03.091Z,18.40
2018-12-29T19:56:34.453Z,17.40
2018-12-29T19:59:06.444Z,17.33
2018-12-29T20:01:38.040Z,17.57
2018-12-29T20:04:12.299Z,15.93
2018-12-29T20:06:43.602Z,18.23
2018-12-29T20:09:14.263Z,18.50
2018-12-29T20:11:45.180Z,16.23
2018-12-29T20:14:16.660Z,14.90
2018-12-29T20:16:48.514Z,18.10
2018-12-29T20:19:19.361Z,17.00
2018-12-29T20:21:53.405Z,16.57
2018-12-29T20:24:24.707Z,19.60
2018-12-29T20:26:55.860Z,17.80
2018-12-29T20:29:27.036Z,17.30
2018-12-29T20:31:59.513Z,17.37
2018-12-29T20:34:30.002Z,20.27
2018-12-29T20:37:00.939Z,19.53
2018-12-29T20:39:32.188Z,18.37
2018-12-29T20:42:07.883Z,24.30
2018-12-29T20:44:38.892Z,17.00
2018-12-29T20:47:09.903Z,17.53
2018-12-29T20:49:41.596Z,15.67
2018-12-29T20:52:14.402Z,16.37
2018-12-29T20:54:45.303Z,19.97
2018-12-29T20:57:16.700Z,15.63
2018-12-29T20:59:47.909Z,14.50
2018-12-29T21:02:19.246Z,15.17
2018-12-29T21:04:50.544Z,14.00
2018-12-29T21:07:21.652Z,16.27
2018-12-29T21:09:53.005Z,16.73
2018-12-29T21:12:25.105Z,16.47
2018-12-29T21:14:56.646Z,14.53
2018-12-29T21:17:27.743Z,17.90
2018-12-29T21:19:58.925Z,15.10
2018-12-29T21:22:29.987Z,14.87
2018-12-29T21:25:01.845Z,19.07
2018-12-29T21:27:33.128Z,19.40
2018-12-29T21:30:07.094Z,16.83
2018-12-29T21:32:37.959Z,21.77
2018-12-29T21:35:10.198Z,21.43
2018-12-29T21:37:41.271Z,17.43
2018-12-29T21:40:12.529Z,18.33
2018-12-29T21:42:44.071Z,18.13
2018-12-29T21:45:14.946Z,16.20
2018-12-29T21:47:46.135Z,18.53
2018-12-29T21:50:17.014Z,16.07
2018-12-29T21:52:51.330Z,18.07
2018-12-29T21:55:22.445Z,17.10
2018-12-29T21:57:52.931Z,15.20
2018-12-29T22:00:23.744Z,16.00
2018-12-29T22:02:54.938Z,16.13
2018-12-29T22:05:26.936Z,20.47
2018-12-29T22:07:57.849Z,18.97
2018-12-29T22:10:28.656Z,15.20
2018-12-29T22:12:59.635Z,15.20
2018-12-29T22:15:31.837Z,20.90
2018-12-29T22:18:03.154Z,17.53
2018-12-29T22:20:34.107Z,14.60
2018-12-29T22:23:05.335Z,13.13
2018-12-29T22:25:36.216Z,16.80
2018-12-29T22:28:08.225Z,15.90
2018-12-29T22:30:41.732Z,14.97
2018-12-29T22:33:12.262Z,15.00
2018-12-29T22:35:42.792Z,17.27
2018-12-29T22:38:13.578Z,14.50
2018-12-29T22:40:44.619Z,14.97
2018-12-29T22:43:15.355Z,16.20
2018-12-29T22:45:47.027Z,16.57
2018-12-29T22:48:17.870Z,17.70
2018-12-29T22:50:49.495Z,18.60
2018-12-29T22:53:20.331Z,16.80
2018-12-29T22:55:50.668Z,15.60
2018-12-29T22:58:21.165Z,17.93
2018-12-29T23:00:52.075Z,16.73
2018-12-29T23:03:22.475Z,21.10
2018-12-29T23:05:53.496Z,17.20
2018-12-29T23:08:24.186Z,15.03
2018-12-29T23:10:55.255Z,18.50
2018-12-29T23:13:29.520Z,17.90
2018-12-29T23:15:59.824Z,21.47
2018-12-29T23:18:30.530Z,18.20
2018-12-29T23:21:01.217Z,16.03
2018-12-29T23:23:32.695Z,16.57
2018-12-29T23:26:03.990Z,20.93
2018-12-29T23:28:34.580Z,19.10
2018-12-29T23:31:05.416Z,14.97
2018-12-29T23:33:36.203Z,15.73
2018-12-29T23:36:07.211Z,15.43
2018-12-29T23:38:38.536Z,14.97
2018-12-29T23:41:09.566Z,13.20
2018-12-29T23:43:41.934Z,14.60
2018-12-29T23:46:12.581Z,14.43
2018-12-29T23:48:43.592Z,13.20
2018-12-29T23:51:15.668Z,14.40
2018-12-29T23:53:46.423Z,12.73
2018-12-29T23:56:18.724Z,12.27
2018-12-29T23:58:49.658Z,13.53
